Westerville, South Dakota
Current Conditions -  °F | °C
As of 12:35 PM on Friday 26 Dec 2014 (Local Time) from KYKN Reporting Station
Overcast Overcast  
Wind Chill: 16°   Ceiling: 1500
Heat Index: 28°   Visibility: 10mi
Dew Point: 21°   Wind: 17mph
Humidity: 74%   Direction: 350°N
Pressure: 30.04"   Gusts: 24mph
Location:  42.8915°N, 96.9263°W
Report Text: KYKN 261835Z AUTO 35015G21KT 10SM OVC015 M02/M06 A3004 RMK AO1
Loading
Personal Weather Stations






























Interactive Weather Map New forecast layout! Learn more

10-Day Weather Forecast

Advertisements
Track Severe Weather on mobile